Time;durP1;ratioP1;P1;durP2;ratioP2;P2;SDS_P1;SDS_P2;PMS_P1;PMS_P2;Temp;Humidity;BMP_temperature;BMP_pressure;BME280_temperature;BME280_humidity;BME280_pressure;Samples;Min_cycle;Max_cycle;Signal;HPM_P1;HPM_P2
2024/01/28 00:00:52;;;;;;;17.88;6.93;;;2.90;99.90;;;;;;5016404;28;20036;-75
2024/01/28 00:03:20;;;;;;;17.58;7.18;;;2.80;99.90;;;;;;5034075;28;20454;-73
2024/01/28 00:05:47;;;;;;;17.83;8.07;;;2.80;99.90;;;;;;5035336;28;20029;-73
2024/01/28 00:08:12;;;;;;;22.63;7.47;;;2.80;99.90;;;;;;5034850;28;20531;-74
2024/01/28 00:10:41;;;;;;;18.00;7.15;;;2.80;99.90;;;;;;5017014;28;20063;-74
2024/01/28 00:13:07;;;;;;;17.33;7.25;;;2.80;99.90;;;;;;5034941;28;20017;-74
2024/01/28 00:15:32;;;;;;;18.92;8.30;;;2.80;99.90;;;;;;5017050;28;20450;-73
2024/01/28 00:18:01;;;;;;;17.15;8.25;;;2.80;99.90;;;;;;5035534;28;20091;-74
2024/01/28 00:20:26;;;;;;;26.75;8.18;;;2.80;99.90;;;;;;5034681;28;20025;-74
2024/01/28 00:22:52;;;;;;;22.45;8.60;;;2.80;99.90;;;;;;5017510;28;20026;-74
2024/01/28 00:25:20;;;;;;;18.27;7.55;;;2.80;99.90;;;;;;5016742;28;20555;-73
2024/01/28 00:27:46;;;;;;;19.17;7.00;;;2.80;99.90;;;;;;5034874;28;20014;-73
2024/01/28 00:30:12;;;;;;;17.33;6.90;;;2.70;99.90;;;;;;5034248;28;20029;-74
2024/01/28 00:32:41;;;;;;;16.67;6.88;;;2.80;99.90;;;;;;5035053;28;20017;-74
2024/01/28 00:35:08;;;;;;;12.38;5.97;;;2.70;99.90;;;;;;5034589;28;20021;-74
2024/01/28 00:37:33;;;;;;;21.48;6.68;;;2.70;99.90;;;;;;5035815;28;20532;-74
2024/01/28 00:39:59;;;;;;;15.50;6.32;;;2.70;99.90;;;;;;5034535;28;20017;-74
2024/01/28 00:42:25;;;;;;;21.70;6.72;;;2.80;99.90;;;;;;5034788;28;20077;-74
2024/01/28 00:44:50;;;;;;;18.65;7.68;;;2.80;99.90;;;;;;5034403;28;20021;-74
2024/01/28 00:47:19;;;;;;;16.60;6.82;;;2.80;99.90;;;;;;5035400;28;20374;-74
2024/01/28 00:49:44;;;;;;;18.90;7.45;;;2.80;99.90;;;;;;5034998;28;20022;-74
2024/01/28 00:52:13;;;;;;;19.70;7.45;;;2.80;99.90;;;;;;5022165;28;20025;-75
2024/01/28 00:54:39;;;;;;;17.52;7.57;;;2.80;99.90;;;;;;5034322;28;20025;-75
2024/01/28 00:57:04;;;;;;;21.05;7.93;;;2.80;99.90;;;;;;5035632;28;20024;-74
2024/01/28 00:59:33;;;;;;;22.27;8.23;;;2.80;99.90;;;;;;5035959;28;20522;-74
2024/01/28 01:01:59;;;;;;;18.25;8.13;;;2.80;99.90;;;;;;5035294;28;20104;-74
2024/01/28 01:04:24;;;;;;;18.08;8.02;;;2.80;99.90;;;;;;5034484;28;20053;-74
2024/01/28 01:06:50;;;;;;;16.05;8.00;;;2.70;99.90;;;;;;5035144;28;20036;-74
2024/01/28 01:09:16;;;;;;;14.07;7.10;;;2.70;99.90;;;;;;5016739;28;20032;-74
2024/01/28 01:11:48;;;;;;;18.52;8.77;;;2.70;99.90;;;;;;5034994;28;20135;-75
2024/01/28 01:14:13;;;;;;;19.83;7.60;;;2.70;99.90;;;;;;5035891;28;20049;-74
2024/01/28 01:16:39;;;;;;;17.88;8.43;;;2.70;99.90;;;;;;5038592;28;20040;-74
2024/01/28 01:19:05;;;;;;;19.77;8.00;;;2.60;99.90;;;;;;5038149;28;20030;-75
2024/01/28 01:21:31;;;;;;;15.90;7.72;;;2.60;99.90;;;;;;5038290;28;20037;-75
2024/01/28 01:23:57;;;;;;;14.30;7.95;;;2.60;99.90;;;;;;5020372;28;20047;-74
2024/01/28 01:26:22;;;;;;;14.70;7.53;;;2.50;99.90;;;;;;5038370;28;20501;-76
2024/01/28 01:28:48;;;;;;;17.10;7.45;;;2.50;99.90;;;;;;5038236;28;20025;-74
2024/01/28 01:31:14;;;;;;;17.67;7.90;;;2.50;99.90;;;;;;5038461;28;20017;-74
2024/01/28 01:33:41;;;;;;;15.95;7.90;;;2.40;99.90;;;;;;5037776;28;20113;-74
2024/01/28 01:36:09;;;;;;;16.92;7.88;;;2.40;99.90;;;;;;5037893;28;20497;-75
2024/01/28 01:38:35;;;;;;;15.82;7.72;;;2.40;99.90;;;;;;5037652;28;20025;-74
2024/01/28 01:41:01;;;;;;;18.55;8.18;;;2.40;99.90;;;;;;5019879;28;20030;-75
2024/01/28 01:43:30;;;;;;;19.17;7.95;;;2.30;99.90;;;;;;5037990;28;20139;-74
2024/01/28 01:45:56;;;;;;;21.30;7.18;;;2.30;99.90;;;;;;5020431;28;20097;-74
2024/01/28 01:48:22;;;;;;;18.42;7.35;;;2.30;99.90;;;;;;5038200;28;20451;-74
2024/01/28 01:50:48;;;;;;;17.25;8.13;;;2.30;99.90;;;;;;5037543;28;20031;-74
2024/01/28 01:53:14;;;;;;;16.33;7.07;;;2.30;99.90;;;;;;5037666;28;20052;-73
2024/01/28 01:55:40;;;;;;;17.20;6.75;;;2.30;99.90;;;;;;5037277;28;20463;-74
2024/01/28 01:58:10;;;;;;;18.90;6.97;;;2.20;99.90;;;;;;5037915;28;20017;-74
2024/01/28 02:00:39;;;;;;;16.75;7.07;;;2.30;99.90;;;;;;5036959;28;20021;-74
2024/01/28 02:03:06;;;;;;;18.45;7.03;;;2.30;99.90;;;;;;5019908;28;20021;-74
2024/01/28 02:05:34;;;;;;;16.15;7.00;;;2.30;99.90;;;;;;5037399;28;20341;-74
2024/01/28 02:08:00;;;;;;;20.05;6.93;;;2.30;99.90;;;;;;5019757;28;20456;-73
2024/01/28 02:10:26;;;;;;;18.27;7.50;;;2.30;99.90;;;;;;5019223;28;20108;-74
2024/01/28 02:12:55;;;;;;;19.65;7.43;;;2.30;99.90;;;;;;5036115;28;20045;-74
2024/01/28 02:15:20;;;;;;;19.88;7.50;;;2.30;99.90;;;;;;5036584;28;20526;-74
2024/01/28 02:17:46;;;;;;;16.65;7.13;;;2.30;99.90;;;;;;5037392;28;20017;-74
2024/01/28 02:20:16;;;;;;;14.10;6.53;;;2.30;99.90;;;;;;5036897;28;20505;-74
2024/01/28 02:22:42;;;;;;;17.83;8.38;;;2.20;99.90;;;;;;5037321;28;20026;-74
2024/01/28 02:25:08;;;;;;;18.40;7.25;;;2.20;99.90;;;;;;5035759;28;20099;-74
2024/01/28 02:27:36;;;;;;;20.67;7.93;;;2.20;99.90;;;;;;5036959;28;20033;-74
2024/01/28 02:30:05;;;;;;;14.80;7.32;;;2.20;99.90;;;;;;5015884;28;20546;-74
2024/01/28 02:32:30;;;;;;;16.98;6.85;;;2.10;99.90;;;;;;5019139;28;20021;-74
2024/01/28 02:34:59;;;;;;;17.40;7.53;;;2.10;99.90;;;;;;5036268;28;20010;-74
2024/01/28 02:37:25;;;;;;;15.30;7.15;;;2.10;99.90;;;;;;5037136;28;20017;-74
2024/01/28 02:39:51;;;;;;;19.85;6.97;;;2.10;99.90;;;;;;5036383;28;20475;-74
2024/01/28 02:42:19;;;;;;;18.25;7.47;;;2.10;99.90;;;;;;5036873;28;20025;-74
2024/01/28 02:44:45;;;;;;;16.15;7.47;;;2.10;99.90;;;;;;5036194;28;20017;-74
2024/01/28 02:47:11;;;;;;;22.35;7.22;;;2.00;99.90;;;;;;5018897;28;20017;-74
2024/01/28 02:49:37;;;;;;;15.68;7.38;;;2.00;99.90;;;;;;5036267;28;20064;-74
2024/01/28 02:52:02;;;;;;;17.23;7.28;;;2.00;99.90;;;;;;5018707;28;20452;-74
2024/01/28 02:54:28;;;;;;;17.90;6.38;;;2.00;99.90;;;;;;5036123;28;20032;-74
2024/01/28 02:56:53;;;;;;;18.35;6.95;;;2.00;99.90;;;;;;5036429;28;20017;-74
2024/01/28 02:59:22;;;;;;;20.08;7.03;;;2.00;99.90;;;;;;5035857;28;20055;-73
2024/01/28 03:01:49;;;;;;;15.93;7.13;;;2.00;99.90;;;;;;5036409;28;20051;-74
2024/01/28 03:04:17;;;;;;;16.25;6.93;;;2.00;99.90;;;;;;5035798;28;20163;-74
2024/01/28 03:06:43;;;;;;;18.27;6.90;;;2.00;99.90;;;;;;5036445;28;20029;-74
2024/01/28 03:09:18;;;;;;;16.08;6.57;;;2.00;99.90;;;;;;5035727;28;20041;-74
2024/01/28 03:11:44;;;;;;;17.38;6.72;;;2.00;99.90;;;;;;5036366;28;20052;-74
2024/01/28 03:14:13;;;;;;;14.82;6.43;;;2.00;99.90;;;;;;5017622;28;20051;-74
2024/01/28 03:16:39;;;;;;;17.85;6.35;;;2.00;99.90;;;;;;5036269;28;20483;-73
2024/01/28 03:19:04;;;;;;;13.07;5.63;;;2.00;99.90;;;;;;5035300;28;20022;-74
2024/01/28 03:21:30;;;;;;;17.95;6.15;;;2.00;99.90;;;;;;5036159;28;20081;-74
2024/01/28 03:23:56;;;;;;;16.40;5.93;;;2.00;99.90;;;;;;5035693;28;20026;-74
2024/01/28 03:26:25;;;;;;;20.17;6.57;;;2.00;99.90;;;;;;5035936;28;20036;-74
2024/01/28 03:28:50;;;;;;;15.07;6.40;;;2.00;99.90;;;;;;5035553;28;20029;-74
2024/01/28 03:31:19;;;;;;;17.42;6.32;;;2.00;99.90;;;;;;5035776;28;20029;-74
2024/01/28 03:33:46;;;;;;;15.88;6.10;;;2.00;99.90;;;;;;5035496;28;20421;-74
2024/01/28 03:36:12;;;;;;;17.52;6.93;;;2.00;99.90;;;;;;5035328;28;20049;-74
2024/01/28 03:38:39;;;;;;;19.40;6.40;;;2.00;99.90;;;;;;5035948;28;20029;-74
2024/01/28 03:41:05;;;;;;;16.95;6.40;;;1.90;99.90;;;;;;5034938;28;20022;-74
2024/01/28 03:43:33;;;;;;;18.85;6.63;;;2.00;99.90;;;;;;5035634;28;20025;-74
2024/01/28 03:45:59;;;;;;;17.80;6.28;;;1.90;99.90;;;;;;5035056;28;20025;-74
2024/01/28 03:48:24;;;;;;;17.52;6.57;;;1.90;99.90;;;;;;5035790;28;20371;-74
2024/01/28 03:50:50;;;;;;;18.10;7.18;;;1.90;99.90;;;;;;5035057;28;20029;-73
2024/01/28 03:53:18;;;;;;;13.82;6.60;;;1.80;99.90;;;;;;5035814;28;20021;-74
2024/01/28 03:55:45;;;;;;;16.60;6.93;;;1.90;99.90;;;;;;5034972;28;20033;-74
2024/01/28 03:58:11;;;;;;;14.88;6.47;;;1.80;99.90;;;;;;5035486;28;20509;-74
2024/01/28 04:00:37;;;;;;;19.73;7.07;;;1.80;99.90;;;;;;5034425;28;20029;-74
2024/01/28 04:03:03;;;;;;;26.02;6.53;;;1.80;99.90;;;;;;5035613;28;20025;-74
2024/01/28 04:05:32;;;;;;;24.63;7.28;;;1.80;99.90;;;;;;5034686;28;20029;-74
2024/01/28 04:07:58;;;;;;;18.50;6.00;;;1.70;99.90;;;;;;5035401;28;20113;-73
2024/01/28 04:10:24;;;;;;;17.35;6.63;;;1.70;99.90;;;;;;5034483;28;20109;-75
2024/01/28 04:12:49;;;;;;;13.52;5.57;;;1.70;99.90;;;;;;5034917;28;20483;-74
2024/01/28 04:15:15;;;;;;;18.20;6.32;;;1.70;99.90;;;;;;5034465;28;20048;-74
2024/01/28 04:17:41;;;;;;;11.32;5.97;;;1.60;99.90;;;;;;5035146;28;20453;-74
2024/01/28 04:20:10;;;;;;;16.25;6.45;;;1.60;99.90;;;;;;5034736;28;20057;-74
2024/01/28 04:22:35;;;;;;;17.52;7.03;;;1.60;99.90;;;;;;5035185;28;20017;-74
2024/01/28 04:25:01;;;;;;;17.08;6.30;;;1.60;99.90;;;;;;5034622;28;20391;-74
2024/01/28 04:27:30;;;;;;;15.10;6.13;;;1.60;99.90;;;;;;5017675;28;20418;-74
2024/01/28 04:29:55;;;;;;;15.18;6.07;;;1.60;99.90;;;;;;5034382;28;20049;-74
2024/01/28 04:32:21;;;;;;;17.88;6.25;;;1.60;99.90;;;;;;5035147;28;20026;-74
2024/01/28 04:34:50;;;;;;;13.35;5.63;;;1.60;99.90;;;;;;5034722;28;20037;-74
2024/01/28 04:37:15;;;;;;;14.05;5.85;;;1.60;99.90;;;;;;5035114;28;20013;-74
2024/01/28 04:39:41;;;;;;;14.15;5.95;;;1.60;99.90;;;;;;5016400;28;20041;-74
2024/01/28 04:42:07;;;;;;;14.98;5.53;;;1.60;99.90;;;;;;5017151;28;20029;-74
2024/01/28 04:44:32;;;;;;;16.05;5.60;;;1.60;99.90;;;;;;5034222;28;20029;-74
2024/01/28 04:46:58;;;;;;;16.48;6.10;;;1.60;99.90;;;;;;5034970;28;20032;-74
2024/01/28 04:49:27;;;;;;;13.35;6.22;;;1.60;99.90;;;;;;5019191;28;20482;-74
2024/01/28 04:51:52;;;;;;;16.45;5.82;;;1.60;99.90;;;;;;5038710;28;20028;-73
2024/01/28 04:54:19;;;;;;;16.77;5.75;;;1.60;99.90;;;;;;5038433;28;20017;-74
2024/01/28 04:56:45;;;;;;;17.55;5.88;;;1.60;99.90;;;;;;5039005;28;20405;-73
2024/01/28 04:59:10;;;;;;;15.38;5.85;;;1.60;99.90;;;;;;5038906;28;20035;-74
2024/01/28 05:01:36;;;;;;;15.93;5.20;;;1.60;99.90;;;;;;5038825;28;20057;-75
2024/01/28 05:04:03;;;;;;;19.40;6.05;;;1.60;99.90;;;;;;5038914;28;20033;-76
2024/01/28 05:06:34;;;;;;;20.13;6.22;;;1.60;99.90;;;;;;5038616;28;20018;-75
2024/01/28 05:09:10;;;;;;;15.68;6.43;;;1.60;99.90;;;;;;5038751;28;20055;-74
2024/01/28 05:11:36;;;;;;;16.80;5.80;;;1.60;99.90;;;;;;5038328;28;20105;-75
2024/01/28 05:14:04;;;;;;;19.75;6.10;;;1.60;99.90;;;;;;5038244;28;20462;-75
2024/01/28 05:16:30;;;;;;;13.15;5.45;;;1.60;99.90;;;;;;5038703;28;20033;-75
2024/01/28 05:18:56;;;;;;;13.60;5.72;;;1.60;99.90;;;;;;5020684;28;20018;-75
2024/01/28 05:21:23;;;;;;;13.02;5.72;;;1.60;99.90;;;;;;5038043;28;20029;-75
2024/01/28 05:23:50;;;;;;;13.95;5.63;;;1.60;99.90;;;;;;5020422;28;20510;-75
2024/01/28 05:26:17;;;;;;;20.52;5.97;;;1.70;99.90;;;;;;5037829;28;20053;-75
2024/01/28 05:28:44;;;;;;;16.27;5.80;;;1.60;99.90;;;;;;5038346;28;20021;-75
2024/01/28 05:31:10;;;;;;;19.95;6.18;;;1.60;99.90;;;;;;5037631;28;20108;-75
2024/01/28 05:33:40;;;;;;;18.02;6.22;;;1.60;99.90;;;;;;5038267;28;20064;-75
2024/01/28 05:36:18;;;;;;;13.30;5.40;;;1.60;99.90;;;;;;5037642;28;20021;-75
2024/01/28 05:38:47;;;;;;;15.27;5.95;;;1.60;99.90;;;;;;5038102;28;20029;-75
2024/01/28 05:41:12;;;;;;;16.17;5.65;;;1.50;99.90;;;;;;5037434;28;20053;-75
2024/01/28 05:43:38;;;;;;;15.07;6.10;;;1.50;99.90;;;;;;5019864;28;20510;-76
2024/01/28 05:46:04;;;;;;;13.75;6.53;;;1.50;99.90;;;;;;5019572;28;20029;-75
2024/01/28 05:48:33;;;;;;;17.77;6.72;;;1.50;99.90;;;;;;5037637;28;20112;-76
2024/01/28 05:50:58;;;;;;;13.85;5.70;;;1.50;99.90;;;;;;5037527;28;20040;-76
2024/01/28 05:53:24;;;;;;;15.00;5.60;;;1.50;99.90;;;;;;5037929;28;20022;-75
2024/01/28 05:55:53;;;;;;;20.25;5.68;;;1.50;99.90;;;;;;5037140;28;20021;-75
2024/01/28 05:58:27;;;;;;;13.80;6.10;;;1.50;99.90;;;;;;5037888;28;20022;-75
2024/01/28 06:01:01;;;;;;;15.15;5.88;;;1.50;99.90;;;;;;5037140;28;20076;-75
2024/01/28 06:03:30;;;;;;;13.52;5.90;;;1.40;99.90;;;;;;5037779;28;20397;-75
2024/01/28 06:05:56;;;;;;;13.68;5.53;;;1.40;99.90;;;;;;5037110;28;20024;-75
2024/01/28 06:08:25;;;;;;;14.15;4.85;;;1.50;99.90;;;;;;5037690;28;20108;-74
2024/01/28 06:10:51;;;;;;;14.00;5.45;;;1.40;99.90;;;;;;5036839;28;20025;-75
2024/01/28 06:13:19;;;;;;;18.42;6.10;;;1.50;99.90;;;;;;5037614;28;20479;-75
2024/01/28 06:15:45;;;;;;;15.90;5.50;;;1.40;99.90;;;;;;5036940;28;20049;-75
2024/01/28 06:18:10;;;;;;;12.07;5.38;;;1.50;99.90;;;;;;5037758;28;20440;-75
2024/01/28 06:20:39;;;;;;;15.05;5.65;;;1.50;99.90;;;;;;5037063;28;20025;-75
2024/01/28 06:23:05;;;;;;;19.42;5.50;;;1.40;99.90;;;;;;5037349;28;20666;-75
2024/01/28 06:25:31;;;;;;;13.20;5.22;;;1.40;99.90;;;;;;5036669;28;20316;-75
2024/01/28 06:27:59;;;;;;;16.88;5.35;;;1.50;99.90;;;;;;5019469;28;20021;-75
2024/01/28 06:30:27;;;;;;;14.18;5.15;;;1.40;99.90;;;;;;5036653;28;20036;-75
2024/01/28 06:32:53;;;;;;;11.13;4.50;;;1.40;99.90;;;;;;5037000;28;20018;-76
2024/01/28 06:35:19;;;;;;;11.40;4.25;;;1.50;99.90;;;;;;5036306;28;20021;-75
2024/01/28 06:37:44;;;;;;;17.55;5.28;;;1.50;99.90;;;;;;5036840;28;20040;-74
2024/01/28 06:40:13;;;;;;;12.43;4.47;;;1.50;99.90;;;;;;5036563;28;20032;-74
2024/01/28 06:42:39;;;;;;;13.32;4.90;;;1.50;99.90;;;;;;5036999;28;20077;-75
2024/01/28 06:45:07;;;;;;;12.82;5.50;;;1.50;99.90;;;;;;5036217;28;20526;-74
2024/01/28 06:47:34;;;;;;;14.68;5.95;;;1.50;99.90;;;;;;5036827;28;20025;-74
2024/01/28 06:50:00;;;;;;;13.50;5.15;;;1.50;99.90;;;;;;5036017;28;20045;-74
2024/01/28 06:52:29;;;;;;;14.05;4.90;;;1.50;99.90;;;;;;5018788;28;20068;-74
2024/01/28 06:54:54;;;;;;;11.25;4.68;;;1.50;99.90;;;;;;5036080;28;20018;-74
2024/01/28 06:57:20;;;;;;;12.70;5.10;;;1.50;99.90;;;;;;5036590;28;20383;-74
2024/01/28 06:59:46;;;;;;;12.40;4.32;;;1.50;99.90;;;;;;5036272;28;20033;-74
2024/01/28 07:02:12;;;;;;;12.40;4.75;;;1.50;99.90;;;;;;5036315;28;20071;-74
2024/01/28 07:04:38;;;;;;;11.25;4.20;;;1.50;99.90;;;;;;5036028;28;20045;-74
2024/01/28 07:07:05;;;;;;;11.63;4.85;;;1.50;99.90;;;;;;5036250;28;20036;-74
2024/01/28 07:09:31;;;;;;;14.98;4.75;;;1.50;99.90;;;;;;5018157;28;20025;-75
2024/01/28 07:11:57;;;;;;;13.18;5.57;;;1.50;99.90;;;;;;5017659;28;20064;-74
2024/01/28 07:14:23;;;;;;;14.43;4.90;;;1.60;99.90;;;;;;5036221;28;20049;-74
2024/01/28 07:16:49;;;;;;;11.57;4.32;;;1.60;99.90;;;;;;5035714;28;20025;-74
2024/01/28 07:19:15;;;;;;;9.45;4.32;;;1.60;99.90;;;;;;5036006;28;20017;-74
2024/01/28 07:21:41;;;;;;;11.10;4.50;;;1.60;99.90;;;;;;5017714;28;20156;-74
2024/01/28 07:24:09;;;;;;;12.43;4.93;;;1.60;99.90;;;;;;5035881;28;20037;-74
2024/01/28 07:26:35;;;;;;;10.32;4.30;;;1.60;99.90;;;;;;5035309;28;20040;-74
2024/01/28 07:29:01;;;;;;;11.82;4.78;;;1.60;99.90;;;;;;5035908;28;20033;-73
2024/01/28 07:31:26;;;;;;;13.55;4.78;;;1.60;99.90;;;;;;5035146;28;20029;-74
2024/01/28 07:33:52;;;;;;;13.07;4.30;;;1.60;99.90;;;;;;5036264;28;20021;-74
2024/01/28 07:36:18;;;;;;;9.60;4.43;;;1.60;99.90;;;;;;5035404;28;20021;-74
2024/01/28 07:38:47;;;;;;;12.98;4.85;;;1.60;99.90;;;;;;5036060;28;20021;-74
2024/01/28 07:41:15;;;;;;;13.52;4.57;;;1.60;99.90;;;;;;5035198;28;20040;-75
2024/01/28 07:43:42;;;;;;;9.60;4.57;;;1.60;99.90;;;;;;5017993;28;20128;-74
2024/01/28 07:46:08;;;;;;;12.85;4.78;;;1.60;99.90;;;;;;5035421;28;20040;-74
2024/01/28 07:48:34;;;;;;;8.48;4.63;;;1.70;99.90;;;;;;5035442;28;20499;-74
2024/01/28 07:51:00;;;;;;;15.75;4.82;;;1.70;99.90;;;;;;5035200;28;20033;-74
2024/01/28 07:53:26;;;;;;;15.43;5.05;;;1.70;99.90;;;;;;5035623;28;20109;-74
2024/01/28 07:55:52;;;;;;;17.27;5.10;;;1.70;99.90;;;;;;5034957;28;20014;-74
2024/01/28 07:58:21;;;;;;;13.98;5.10;;;1.70;99.90;;;;;;5017740;28;20057;-73
2024/01/28 08:00:47;;;;;;;13.52;5.18;;;1.70;99.90;;;;;;5034979;28;20041;-75
2024/01/28 08:03:12;;;;;;;15.82;6.10;;;1.80;99.90;;;;;;5035379;28;20479;-74
2024/01/28 08:05:41;;;;;;;13.95;5.57;;;1.70;99.90;;;;;;5034415;28;20479;-74
2024/01/28 08:08:07;;;;;;;15.57;5.03;;;1.70;99.90;;;;;;5033800;28;20033;-74
2024/01/28 08:10:33;;;;;;;16.38;5.72;;;1.80;99.90;;;;;;5034381;28;20230;-74
2024/01/28 08:12:59;;;;;;;15.82;5.57;;;1.80;99.90;;;;;;5035338;28;20021;-74
2024/01/28 08:15:24;;;;;;;13.80;5.22;;;1.80;99.90;;;;;;5033778;28;20049;-74
2024/01/28 08:17:50;;;;;;;16.23;5.43;;;1.90;99.90;;;;;;5017100;28;20398;-74
2024/01/28 08:20:17;;;;;;;11.90;5.55;;;1.90;99.90;;;;;;5034254;28;20191;-74
2024/01/28 08:22:43;;;;;;;12.55;5.97;;;1.90;99.90;;;;;;5033924;28;20440;-74
2024/01/28 08:25:11;;;;;;;12.18;5.28;;;2.00;99.90;;;;;;5034322;28;20028;-74
2024/01/28 08:27:37;;;;;;;16.83;5.93;;;2.00;99.90;;;;;;5034940;28;20064;-74
2024/01/28 08:30:11;;;;;;;18.38;5.90;;;2.00;99.90;;;;;;5034377;28;20025;-74
2024/01/28 08:32:37;;;;;;;12.77;5.43;;;2.00;99.90;;;;;;5016185;28;20034;-74
2024/01/28 08:35:06;;;;;;;15.20;5.57;;;2.10;99.90;;;;;;5034637;28;20029;-74
2024/01/28 08:37:32;;;;;;;12.90;5.63;;;2.10;99.90;;;;;;5016944;28;20265;-74
2024/01/28 08:39:58;;;;;;;13.05;5.28;;;2.10;99.90;;;;;;5016848;28;20071;-74
2024/01/28 08:42:24;;;;;;;10.70;5.13;;;2.20;99.90;;;;;;5034479;28;20045;-74
2024/01/28 08:44:50;;;;;;;15.35;5.10;;;2.20;99.90;;;;;;5034331;28;20084;-74
2024/01/28 08:47:15;;;;;;;9.05;4.43;;;2.30;99.90;;;;;;5034357;28;20021;-74
2024/01/28 08:49:44;;;;;;;13.30;5.13;;;2.30;99.90;;;;;;5034842;28;20029;-73
2024/01/28 08:52:11;;;;;;;11.98;5.00;;;2.40;99.90;;;;;;5033953;28;20021;-74
2024/01/28 08:54:37;;;;;;;9.40;4.38;;;2.40;99.90;;;;;;5017235;28;20127;-73
2024/01/28 08:57:04;;;;;;;13.93;4.65;;;2.50;99.90;;;;;;5034436;28;20032;-73
2024/01/28 08:59:29;;;;;;;10.65;4.13;;;2.50;99.90;;;;;;5034492;28;20028;-74
2024/01/28 09:01:57;;;;;;;11.88;4.65;;;2.60;99.90;;;;;;5034048;28;20018;-74
2024/01/28 09:04:23;;;;;;;13.02;4.55;;;2.60;99.90;;;;;;5034342;28;20037;-74
2024/01/28 09:06:48;;;;;;;11.90;4.85;;;2.70;99.90;;;;;;5016017;28;20125;-74
2024/01/28 09:09:14;;;;;;;12.90;4.78;;;2.70;99.90;;;;;;5034390;28;20030;-74
2024/01/28 09:11:40;;;;;;;10.18;3.65;;;2.90;99.90;;;;;;5034322;28;20025;-74
2024/01/28 09:14:06;;;;;;;12.30;4.30;;;2.90;99.90;;;;;;5033608;28;20157;-74
2024/01/28 09:16:31;;;;;;;9.73;3.78;;;3.00;99.90;;;;;;5016069;28;20049;-74
2024/01/28 09:18:57;;;;;;;9.25;3.70;;;3.10;99.90;;;;;;5034066;28;20132;-73
2024/01/28 09:21:25;;;;;;;8.90;4.28;;;3.20;99.90;;;;;;5016025;28;20044;-74
2024/01/28 09:23:51;;;;;;;12.18;4.22;;;3.20;99.90;;;;;;5034140;28;20017;-74
2024/01/28 09:26:20;;;;;;;12.20;4.22;;;3.30;99.90;;;;;;5034485;28;20041;-74
2024/01/28 09:28:46;;;;;;;11.50;4.18;;;3.40;99.90;;;;;;5035323;28;20040;-74
2024/01/28 09:31:12;;;;;;;11.35;3.97;;;3.50;99.90;;;;;;5034005;28;20026;-74
2024/01/28 09:33:41;;;;;;;7.40;3.65;;;3.60;99.90;;;;;;5013945;28;20080;-74
2024/01/28 09:36:06;;;;;;;9.38;3.80;;;3.70;99.90;;;;;;5037252;28;20056;-73
2024/01/28 09:38:35;;;;;;;7.30;3.92;;;3.80;99.90;;;;;;5038248;28;20413;-74
2024/01/28 09:41:15;;;;;;;9.57;4.22;;;3.80;99.90;;;;;;5037404;28;20068;-74
2024/01/28 09:43:41;;;;;;;9.77;3.30;;;3.90;99.90;;;;;;5024211;28;20025;-74
2024/01/28 09:46:07;;;;;;;8.52;3.25;;;4.00;99.90;;;;;;5037337;28;20442;-74
2024/01/28 09:48:34;;;;;;;11.02;3.55;;;4.10;99.90;;;;;;5037903;28;20021;-73
2024/01/28 09:50:59;;;;;;;8.43;3.50;;;4.20;99.90;;;;;;5037420;28;20080;-73
2024/01/28 09:53:25;;;;;;;11.80;4.32;;;4.30;99.90;;;;;;5037841;28;20021;-74
2024/01/28 09:55:53;;;;;;;8.50;3.45;;;4.40;99.90;;;;;;5037208;28;20369;-74
2024/01/28 09:58:19;;;;;;;8.60;3.28;;;4.40;99.90;;;;;;5035834;28;20025;-74
2024/01/28 10:00:46;;;;;;;6.13;2.60;;;4.50;99.90;;;;;;5034969;28;20040;-73
2024/01/28 10:03:11;;;;;;;9.32;3.40;;;4.60;99.90;;;;;;5024730;28;20030;-74
2024/01/28 10:05:37;;;;;;;8.73;3.38;;;4.70;99.90;;;;;;5035800;28;20108;-74
2024/01/28 10:08:04;;;;;;;7.45;3.13;;;4.80;99.90;;;;;;5037638;28;20025;-74
2024/01/28 10:10:34;;;;;;;8.77;2.90;;;4.90;99.90;;;;;;5036859;28;20026;-74
2024/01/28 10:13:00;;;;;;;7.07;2.80;;;5.00;99.90;;;;;;5037438;28;20025;-75
2024/01/28 10:15:27;;;;;;;10.95;3.55;;;5.10;99.90;;;;;;5019017;28;20103;-74
2024/01/28 10:17:53;;;;;;;8.57;3.17;;;5.20;99.90;;;;;;5009384;28;20030;-74
2024/01/28 10:20:21;;;;;;;10.25;3.03;;;5.30;99.90;;;;;;5010652;28;20459;-74
2024/01/28 10:22:47;;;;;;;11.68;3.42;;;5.40;99.90;;;;;;5012159;28;20042;-74
2024/01/28 10:25:16;;;;;;;9.07;3.33;;;5.50;99.90;;;;;;5009157;28;20033;-74
2024/01/28 10:27:43;;;;;;;9.52;3.28;;;5.50;99.90;;;;;;5017524;28;20010;-74
2024/01/28 10:30:11;;;;;;;8.77;3.40;;;5.60;99.90;;;;;;5015581;28;20034;-74
2024/01/28 10:32:37;;;;;;;8.27;3.50;;;5.70;99.90;;;;;;5017314;28;20117;-74
2024/01/28 10:35:07;;;;;;;11.32;3.30;;;5.80;99.90;;;;;;5017173;28;20018;-74
2024/01/28 10:37:35;;;;;;;11.52;3.00;;;5.90;99.90;;;;;;5017043;28;20022;-74
2024/01/28 10:40:09;;;;;;;8.30;3.30;;;6.00;99.90;;;;;;5015787;28;20469;-74
2024/01/28 10:42:39;;;;;;;12.57;3.40;;;6.10;99.90;;;;;;5016629;28;20018;-74
2024/01/28 10:45:10;;;;;;;12.90;3.40;;;6.20;99.90;;;;;;5015666;28;20029;-74
2024/01/28 10:47:36;;;;;;;5.95;2.95;;;6.20;99.90;;;;;;5015999;28;20040;-74
2024/01/28 10:50:10;;;;;;;6.70;2.67;;;6.30;99.90;;;;;;5015942;28;20541;-74
2024/01/28 10:52:37;;;;;;;7.00;3.15;;;6.40;99.90;;;;;;5019165;28;20134;-72
2024/01/28 10:55:04;;;;;;;9.35;3.05;;;6.50;99.90;;;;;;5016005;28;20379;-74
2024/01/28 10:57:35;;;;;;;8.00;3.30;;;6.60;99.90;;;;;;5016430;28;20376;-74
2024/01/28 11:00:10;;;;;;;9.65;3.20;;;6.70;99.90;;;;;;5016890;28;20026;-74
2024/01/28 11:02:39;;;;;;;9.65;2.95;;;6.80;99.90;;;;;;5016359;28;20087;-74
2024/01/28 11:05:09;;;;;;;10.18;2.80;;;6.90;99.90;;;;;;5015388;28;20026;-74
2024/01/28 11:07:36;;;;;;;8.95;3.50;;;7.00;99.90;;;;;;5015767;28;20033;-74
2024/01/28 11:10:04;;;;;;;6.20;2.83;;;7.00;99.90;;;;;;5016571;28;20030;-74
2024/01/28 11:12:29;;;;;;;9.73;3.20;;;7.20;99.90;;;;;;5015217;28;20473;-74
2024/01/28 11:14:59;;;;;;;8.50;3.30;;;7.30;99.90;;;;;;5024082;28;20577;-75
2024/01/28 11:17:34;;;;;;;8.60;2.83;;;7.30;99.90;;;;;;5035409;28;20104;-74
2024/01/28 11:20:11;;;;;;;12.18;3.20;;;7.40;99.90;;;;;;5036605;28;20072;-74
2024/01/28 11:22:53;;;;;;;5.70;2.85;;;7.50;99.90;;;;;;5017642;28;20014;-75
2024/01/28 11:25:21;;;;;;;6.90;3.17;;;7.60;99.90;;;;;;5035558;28;20426;-75
2024/01/28 11:27:47;;;;;;;5.65;2.60;;;7.70;99.90;;;;;;5035508;28;20513;-75
2024/01/28 11:30:14;;;;;;;6.50;2.80;;;7.80;99.90;;;;;;5035390;28;20024;-75
2024/01/28 11:32:41;;;;;;;9.82;3.53;;;8.00;99.90;;;;;;5035794;28;20089;-73
2024/01/28 11:35:07;;;;;;;6.00;3.03;;;8.10;99.90;;;;;;5035543;28;20017;-75
2024/01/28 11:37:50;;;;;;;6.30;2.90;;;8.20;99.90;;;;;;5021013;28;20069;-75
2024/01/28 11:40:32;;;;;;;7.40;3.45;;;8.40;99.90;;;;;;5025715;28;20020;-75
2024/01/28 11:42:57;;;;;;;;;;;8.50;99.90;;;;;;5035476;28;20052;-75
2024/01/28 11:45:26;;;;;;;5.57;2.78;;;8.50;99.90;;;;;;5035297;28;19913;-74
2024/01/28 11:47:52;;;;;;;9.13;2.97;;;8.70;99.90;;;;;;5035370;28;20018;-75
2024/01/28 11:50:17;;;;;;;12.82;3.33;;;8.80;99.90;;;;;;5017502;28;20021;-74
2024/01/28 11:52:46;;;;;;;6.43;2.97;;;8.80;99.90;;;;;;5016799;28;20025;-75
2024/01/28 11:55:19;;;;;;;8.98;3.05;;;8.90;99.90;;;;;;5034530;28;20586;-74
2024/01/28 11:57:47;;;;;;;4.60;2.35;;;9.00;99.90;;;;;;5033967;28;20090;-75
2024/01/28 12:00:13;;;;;;;6.13;3.05;;;9.10;99.90;;;;;;5017604;28;20552;-74
2024/01/28 12:02:40;;;;;;;6.15;2.67;;;9.20;99.90;;;;;;5034480;28;20059;-73
2024/01/28 12:05:07;;;;;;;7.38;3.28;;;9.30;99.90;;;;;;5035219;28;20013;-74
2024/01/28 12:07:37;;;;;;;7.70;3.17;;;9.40;99.90;;;;;;5033442;28;20100;-74
2024/01/28 12:10:07;;;;;;;6.75;2.70;;;9.40;99.90;;;;;;5035244;28;20025;-74
2024/01/28 12:12:34;;;;;;;6.97;3.03;;;9.50;99.90;;;;;;5034250;28;20083;-74
2024/01/28 12:15:04;;;;;;;7.18;2.88;;;9.60;99.90;;;;;;5035028;28;20124;-74
2024/01/28 12:17:40;;;;;;;11.10;3.13;;;9.70;99.90;;;;;;5034354;28;20442;-74
2024/01/28 12:20:07;;;;;;;8.85;3.20;;;9.80;99.90;;;;;;5034684;28;20113;-73
2024/01/28 12:22:40;;;;;;;8.13;2.70;;;9.90;99.90;;;;;;5034243;28;20028;-72
2024/01/28 12:25:10;;;;;;;10.85;2.85;;;10.00;99.90;;;;;;5035287;28;20052;-74
2024/01/28 12:27:39;;;;;;;5.85;2.83;;;10.10;99.90;;;;;;5033304;28;20549;-74
2024/01/28 12:30:12;;;;;;;10.07;2.97;;;10.20;99.90;;;;;;5034938;28;20545;-73
2024/01/28 12:32:38;;;;;;;9.95;3.25;;;10.20;99.90;;;;;;5033954;28;20117;-74
2024/01/28 12:35:09;;;;;;;5.15;2.88;;;10.30;99.90;;;;;;5034761;28;20049;-74
2024/01/28 12:37:36;;;;;;;8.18;2.88;;;10.40;99.90;;;;;;5029067;28;20035;-74
2024/01/28 12:40:02;;;;;;;5.68;2.85;;;10.40;99.90;;;;;;5033338;28;20033;-73
2024/01/28 12:42:29;;;;;;;6.00;3.17;;;10.50;99.90;;;;;;5034074;28;20084;-74
2024/01/28 12:44:55;;;;;;;7.05;3.15;;;10.60;99.90;;;;;;5034592;28;20129;-74
2024/01/28 12:47:20;;;;;;;8.32;3.28;;;10.60;99.90;;;;;;5016610;28;20045;-74